createdAt,value
2022-08-07T00:00:19.614Z,101936.47
2022-08-07T00:03:04.928Z,101934.91
2022-08-07T00:05:50.514Z,101927.03
2022-08-07T00:08:36.577Z,101928.72
2022-08-07T00:11:33.071Z,101931.13
2022-08-07T00:14:18.371Z,101925.06
2022-08-07T00:17:04.361Z,101919.84
2022-08-07T00:20:01.198Z,101916.19
2022-08-07T00:22:51.712Z,101915.94
2022-08-07T00:25:41.537Z,101922.84
2022-08-07T00:28:33.450Z,101917.47
2022-08-07T00:31:19.297Z,101917.41
2022-08-07T00:34:04.198Z,101919.06
2022-08-07T00:36:54.549Z,101913.72
2022-08-07T00:39:45.044Z,101924.94
2022-08-07T00:42:32.946Z,101923.34
2022-08-07T00:45:21.700Z,101919.00
2022-08-07T00:48:11.047Z,101920.75
2022-08-07T00:50:56.655Z,101918.16
2022-08-07T00:53:50.147Z,101912.88
2022-08-07T00:56:37.243Z,101911.81
2022-08-07T00:59:35.491Z,101908.28
2022-08-07T01:02:28.838Z,101914.13
2022-08-07T01:05:19.154Z,101910.72
2022-08-07T01:08:05.090Z,101900.44
2022-08-07T01:10:56.480Z,101892.59
2022-08-07T01:13:46.740Z,101905.47
2022-08-07T01:16:42.970Z,101903.78
2022-08-07T01:19:32.552Z,101902.00
2022-08-07T01:22:22.735Z,101903.59
2022-08-07T01:25:54.614Z,101912.19
2022-08-07T01:28:19.956Z,101904.47
2022-08-07T01:31:05.433Z,101910.31
2022-08-07T01:33:55.491Z,101915.19
2022-08-07T01:36:41.899Z,101914.31
2022-08-07T01:39:41.293Z,101912.38
2022-08-07T01:42:39.491Z,101916.53
2022-08-07T01:45:40.138Z,101913.72
2022-08-07T01:48:30.282Z,101917.41
2022-08-07T01:51:24.748Z,101920.66
2022-08-07T01:54:36.555Z,101913.34
2022-08-07T01:57:27.819Z,101906.97
2022-08-07T02:00:13.908Z,101903.91
2022-08-07T02:03:18.298Z,101891.88
2022-08-07T02:06:31.918Z,101899.28
2022-08-07T02:09:33.736Z,101894.00
2022-08-07T02:12:31.419Z,101880.31
2022-08-07T02:15:22.602Z,101874.09
2022-08-07T02:18:12.246Z,101877.25
2022-08-07T02:21:00.057Z,101886.44
2022-08-07T02:23:51.758Z,101889.00
2022-08-07T02:26:39.229Z,101888.19
2022-08-07T02:29:25.045Z,101886.38
2022-08-07T02:32:13.698Z,101884.59
2022-08-07T02:35:01.129Z,101879.69
2022-08-07T02:37:48.001Z,101877.09
2022-08-07T02:40:35.449Z,101876.22
2022-08-07T02:43:22.547Z,101880.56
2022-08-07T02:46:11.294Z,101872.59
2022-08-07T02:48:56.657Z,101883.69
2022-08-07T02:51:52.074Z,101875.13
2022-08-07T02:54:41.074Z,101873.38
2022-08-07T02:57:30.972Z,101874.41
2022-08-07T03:00:19.858Z,101871.72
2022-08-07T03:03:07.829Z,101878.59
2022-08-07T03:05:59.721Z,101872.53
2022-08-07T03:08:46.080Z,101869.00
2022-08-07T03:11:38.645Z,101872.47
2022-08-07T03:14:25.929Z,101878.53
2022-08-07T03:17:13.063Z,101874.91
2022-08-07T03:20:00.060Z,101867.09
2022-08-07T03:22:50.320Z,101867.81
2022-08-07T03:25:40.480Z,101865.13
2022-08-07T03:28:38.211Z,101873.63
2022-08-07T03:31:42.759Z,101880.53
2022-08-07T03:34:32.905Z,101883.66
2022-08-07T03:37:27.489Z,101882.03
2022-08-07T03:40:16.751Z,101876.75
2022-08-07T03:43:02.882Z,101877.53
2022-08-07T03:45:48.596Z,101872.28
2022-08-07T03:48:45.725Z,101878.41
2022-08-07T03:51:47.932Z,101881.22
2022-08-07T03:54:54.245Z,101882.31
2022-08-07T03:58:33.134Z,101878.63
2022-08-07T04:00:53.319Z,101870.59
2022-08-07T04:03:49.760Z,101871.63
2022-08-07T04:06:40.321Z,101866.44
2022-08-07T04:09:38.031Z,101877.34
2022-08-07T04:12:31.628Z,101879.69
2022-08-07T04:15:20.478Z,101883.31
2022-08-07T04:18:57.519Z,101883.53
2022-08-07T04:21:16.670Z,101881.06
2022-08-07T04:24:07.838Z,101886.19
2022-08-07T04:26:53.257Z,101892.38
2022-08-07T04:29:48.835Z,101889.78
2022-08-07T04:32:48.076Z,101895.09
2022-08-07T04:35:50.593Z,101889.78
2022-08-07T04:38:37.058Z,101879.25
2022-08-07T04:41:22.278Z,101878.63
2022-08-07T04:44:13.171Z,101882.22
2022-08-07T04:47:11.419Z,101882.34
2022-08-07T04:50:35.271Z,101893.91
2022-08-07T04:54:05.759Z,101895.56
2022-08-07T04:58:16.316Z,101895.56
2022-08-07T05:00:18.879Z,101902.75
2022-08-07T05:03:59.921Z,101909.72
2022-08-07T05:07:19.558Z,101907.44
2022-08-07T05:10:14.131Z,101905.13
2022-08-07T05:14:44.284Z,101901.06
2022-08-07T05:16:17.171Z,101903.03
2022-08-07T05:19:13.180Z,101904.16
2022-08-07T05:22:01.988Z,101903.53
2022-08-07T05:24:50.471Z,101908.91
2022-08-07T05:28:02.601Z,101914.97
2022-08-07T05:30:42.549Z,101910.94
2022-08-07T05:33:29.258Z,101912.84
2022-08-07T05:36:22.410Z,101919.25
2022-08-07T05:40:07.111Z,101909.88
2022-08-07T05:42:14.745Z,101918.00
2022-08-07T05:45:26.370Z,101920.81
2022-08-07T05:48:26.518Z,101916.34
2022-08-07T05:51:14.921Z,101921.59
2022-08-07T05:54:13.381Z,101925.22
2022-08-07T05:57:09.010Z,101921.25
2022-08-07T05:59:57.700Z,101920.47
2022-08-07T06:02:47.564Z,101919.75
2022-08-07T06:05:34.230Z,101925.09
2022-08-07T06:08:30.855Z,101923.56
2022-08-07T06:11:17.041Z,101928.16
2022-08-07T06:14:11.852Z,101924.75
2022-08-07T06:17:07.040Z,101920.66
2022-08-07T06:20:03.413Z,101926.97
2022-08-07T06:22:50.562Z,101927.16
2022-08-07T06:25:54.782Z,101913.31
2022-08-07T06:28:53.012Z,101914.31
2022-08-07T06:31:46.644Z,101909.19
2022-08-07T06:34:35.489Z,101897.97
2022-08-07T06:37:20.855Z,101900.00
2022-08-07T06:40:16.174Z,101871.50
2022-08-07T06:43:21.600Z,101867.25
2022-08-07T06:46:12.509Z,101872.75
2022-08-07T06:48:58.466Z,101875.63
2022-08-07T06:51:49.839Z,101867.94
2022-08-07T06:55:33.577Z,101857.72
2022-08-07T06:57:49.973Z,101864.94
2022-08-07T07:00:42.456Z,101852.25
2022-08-07T07:03:39.779Z,101819.34
2022-08-07T07:06:34.191Z,101825.81
2022-08-07T07:09:31.275Z,101838.31
2022-08-07T07:12:31.168Z,101831.66
2022-08-07T07:15:32.591Z,101828.50
2022-08-07T07:19:00.133Z,101851.44
2022-08-07T07:22:04.774Z,101828.03
2022-08-07T07:25:14.125Z,101769.53
2022-08-07T07:28:42.406Z,101728.19
2022-08-07T07:31:40.160Z,101703.28
2022-08-07T07:34:32.154Z,101675.91
2022-08-07T07:37:45.086Z,101698.53
2022-08-07T07:40:26.059Z,101699.91
2022-08-07T07:43:18.465Z,101683.25
2022-08-07T07:46:38.296Z,101683.41
2022-08-07T07:50:32.962Z,101695.78
2022-08-07T07:52:26.114Z,101664.91
2022-08-07T07:55:12.921Z,101650.22
2022-08-07T07:57:58.796Z,101655.91
2022-08-07T08:00:48.715Z,101660.31
2022-08-07T08:04:09.551Z,101667.69
2022-08-07T08:06:50.922Z,101661.28
2022-08-07T08:09:52.017Z,101628.66
2022-08-07T08:12:52.459Z,101590.59
2022-08-07T08:15:57.497Z,101628.38
2022-08-07T08:18:45.503Z,101673.75
2022-08-07T08:21:56.928Z,101578.56
2022-08-07T08:24:47.627Z,101641.00
2022-08-07T08:27:43.901Z,101603.09
2022-08-07T08:30:51.512Z,101673.09
2022-08-07T08:33:42.375Z,101650.84
2022-08-07T08:36:36.313Z,101645.44
2022-08-07T08:39:25.085Z,101638.16
2022-08-07T08:42:52.461Z,101655.69
2022-08-07T08:46:00.561Z,101615.38
2022-08-07T08:49:07.113Z,101600.13
2022-08-07T08:52:14.041Z,101600.88
2022-08-07T08:55:09.514Z,101632.44
2022-08-07T08:58:20.352Z,101611.63
2022-08-07T09:01:19.929Z,101630.31
2022-08-07T09:04:25.953Z,101574.84
2022-08-07T09:07:27.058Z,101587.44
2022-08-07T09:10:25.280Z,101585.22
2022-08-07T09:13:36.953Z,101613.16
2022-08-07T09:16:41.702Z,101589.91
2022-08-07T09:20:35.265Z,101666.44
2022-08-07T09:24:33.426Z,101632.63
2022-08-07T09:27:04.574Z,101627.63
2022-08-07T09:30:08.718Z,101643.78
2022-08-07T09:33:05.533Z,101636.56
2022-08-07T09:36:11.761Z,101612.06
2022-08-07T09:39:52.741Z,101617.25
2022-08-07T09:42:29.239Z,101616.56
2022-08-07T09:47:42.382Z,101649.28
2022-08-07T09:50:01.738Z,101616.97
2022-08-07T09:52:42.726Z,101654.78
2022-08-07T09:56:37.296Z,101625.72
2022-08-07T10:00:01.479Z,101604.31
2022-08-07T10:03:08.281Z,101663.72
2022-08-07T10:06:25.166Z,101635.22
2022-08-07T10:09:42.507Z,101635.88
2022-08-07T10:13:54.952Z,101678.19
2022-08-07T10:16:41.228Z,101622.59
2022-08-07T10:19:55.568Z,101609.56
2022-08-07T10:23:09.760Z,101647.72
2022-08-07T10:25:55.134Z,101636.50
2022-08-07T10:28:49.943Z,101626.66
2022-08-07T10:31:52.865Z,101605.81
2022-08-07T10:34:59.768Z,101604.81
2022-08-07T10:38:35.186Z,101586.59
2022-08-07T10:41:51.749Z,101606.31
2022-08-07T10:44:51.827Z,101600.72
2022-08-07T10:47:53.595Z,101583.72
2022-08-07T10:50:50.309Z,101573.25
2022-08-07T10:54:11.581Z,101600.06
2022-08-07T10:57:36.933Z,101618.09
2022-08-07T11:00:39.227Z,101566.09
2022-08-07T11:03:42.934Z,101552.06
2022-08-07T11:06:59.271Z,101608.38
2022-08-07T11:10:07.461Z,101542.53
2022-08-07T11:14:45.362Z,101542.59
2022-08-07T11:16:54.730Z,101516.44
2022-08-07T11:19:50.468Z,101571.59
2022-08-07T11:22:45.873Z,101557.28
2022-08-07T11:25:49.991Z,101535.75
2022-08-07T11:28:40.788Z,101560.91
2022-08-07T11:31:53.734Z,101571.97
2022-08-07T11:34:48.676Z,101559.53
2022-08-07T11:37:58.271Z,101550.47
2022-08-07T11:41:03.798Z,101559.72
2022-08-07T11:44:12.645Z,101527.94
2022-08-07T11:47:55.973Z,101474.69
2022-08-07T11:51:40.868Z,101524.94
2022-08-07T11:55:01.184Z,101550.47
2022-08-07T11:58:13.226Z,101531.38
2022-08-07T12:01:09.575Z,101540.03
2022-08-07T12:04:08.911Z,101539.66
2022-08-07T12:07:20.593Z,101517.72
2022-08-07T12:10:19.010Z,101506.34
2022-08-07T12:13:17.177Z,101528.13
2022-08-07T12:16:09.230Z,101510.38
2022-08-07T12:19:21.729Z,101495.09
2022-08-07T12:22:37.475Z,101528.38
2022-08-07T12:26:05.311Z,101509.78
2022-08-07T12:28:31.207Z,101504.09
2022-08-07T12:32:01.317Z,101496.03
2022-08-07T12:34:49.561Z,101489.69
2022-08-07T12:38:09.562Z,101485.56
2022-08-07T12:40:50.541Z,101474.88
2022-08-07T12:44:02.791Z,101500.72
2022-08-07T12:46:59.754Z,101516.69
2022-08-07T12:50:04.741Z,101463.22
2022-08-07T12:53:00.535Z,101485.50
2022-08-07T12:56:09.554Z,101507.06
2022-08-07T12:58:59.593Z,101501.53
2022-08-07T13:02:09.975Z,101504.03
2022-08-07T13:06:01.746Z,101479.69
2022-08-07T13:08:50.468Z,101492.31
2022-08-07T13:12:02.242Z,101493.66
2022-08-07T13:15:14.209Z,101455.03
2022-08-07T13:18:28.256Z,101482.22
2022-08-07T13:21:51.237Z,101469.63
2022-08-07T13:24:37.058Z,101445.59
2022-08-07T13:28:10.806Z,101445.56
2022-08-07T13:31:13.462Z,101453.59
2022-08-07T13:34:33.003Z,101440.44
2022-08-07T13:37:32.596Z,101435.69
2022-08-07T13:40:41.854Z,101458.22
2022-08-07T13:43:29.018Z,101459.75
2022-08-07T13:46:28.263Z,101422.75
2022-08-07T13:50:35.518Z,101453.09
2022-08-07T13:52:32.078Z,101447.03
2022-08-07T13:55:26.321Z,101436.13
2022-08-07T13:58:18.927Z,101418.97
2022-08-07T14:01:15.964Z,101399.59
2022-08-07T14:04:15.866Z,101424.34
2022-08-07T14:07:09.638Z,101413.41
2022-08-07T14:10:17.689Z,101419.28
2022-08-07T14:13:05.388Z,101452.03
2022-08-07T14:16:01.740Z,101387.19
2022-08-07T14:18:57.212Z,101426.63
2022-08-07T14:22:04.160Z,101432.41
2022-08-07T14:24:54.112Z,101479.34
2022-08-07T14:28:12.263Z,101443.34
2022-08-07T14:30:55.127Z,101440.63
2022-08-07T14:33:45.117Z,101456.19
2022-08-07T14:36:32.943Z,101430.59
2022-08-07T14:40:16.273Z,101468.34
2022-08-07T14:42:32.566Z,101449.03
2022-08-07T14:45:22.479Z,101452.88
2022-08-07T14:48:09.382Z,101516.91
2022-08-07T14:51:15.776Z,101452.06
2022-08-07T14:54:30.151Z,101450.66
2022-08-07T14:57:15.080Z,101440.56
2022-08-07T15:00:20.808Z,101458.22
2022-08-07T15:03:19.426Z,101441.81
2022-08-07T15:06:05.581Z,101435.53
2022-08-07T15:08:55.833Z,101480.91
2022-08-07T15:11:53.879Z,101453.50
2022-08-07T15:14:58.112Z,101477.31
2022-08-07T15:20:55.567Z,101436.88
2022-08-07T15:25:14.601Z,101442.38
2022-08-07T15:26:57.362Z,101479.97
2022-08-07T15:33:03.756Z,101521.69
2022-08-07T15:39:03.826Z,101505.59
2022-08-07T15:42:46.252Z,101536.03
2022-08-07T15:45:12.342Z,101464.84
2022-08-07T15:48:20.359Z,101453.13
2022-08-07T15:51:10.080Z,101454.03
2022-08-07T15:54:00.451Z,101461.13
2022-08-07T15:56:48.305Z,101506.31
2022-08-07T15:59:39.898Z,101506.56
2022-08-07T16:02:35.536Z,101447.31
2022-08-07T16:05:23.079Z,101435.91
2022-08-07T16:08:30.206Z,101447.22
2022-08-07T16:11:40.135Z,101465.59
2022-08-07T16:14:45.163Z,101467.72
2022-08-07T16:18:02.283Z,101440.19
2022-08-07T16:22:01.682Z,101478.69
2022-08-07T16:24:33.661Z,101481.72
2022-08-07T16:27:26.534Z,101492.97
2022-08-07T16:30:32.628Z,101507.66
2022-08-07T16:34:02.172Z,101501.50
2022-08-07T16:37:01.988Z,101466.94
2022-08-07T16:40:33.240Z,101472.28
2022-08-07T16:44:02.555Z,101434.19
2022-08-07T16:47:45.228Z,101430.06
2022-08-07T16:50:52.731Z,101480.41
2022-08-07T16:54:09.798Z,101514.03
2022-08-07T16:58:02.253Z,101504.25
2022-08-07T17:00:41.806Z,101472.13
2022-08-07T17:03:57.686Z,101435.31
2022-08-07T17:07:16.476Z,101426.47
2022-08-07T17:10:32.283Z,101425.53
2022-08-07T17:13:41.610Z,101415.44
2022-08-07T17:16:55.770Z,101406.47
2022-08-07T17:20:03.061Z,101426.72
2022-08-07T17:23:14.816Z,101425.78
2022-08-07T17:26:30.619Z,101470.88
2022-08-07T17:30:14.915Z,101470.53
2022-08-07T17:32:52.552Z,101432.31
2022-08-07T17:36:00.568Z,101428.72
2022-08-07T17:39:10.724Z,101421.75
2022-08-07T17:42:06.998Z,101446.19
2022-08-07T17:44:57.525Z,101428.56
2022-08-07T17:47:54.104Z,101414.59
2022-08-07T17:50:46.998Z,101433.06
2022-08-07T17:54:00.967Z,101470.88
2022-08-07T17:57:04.776Z,101477.34
2022-08-07T18:00:07.864Z,101488.16
2022-08-07T18:03:01.056Z,101509.81
2022-08-07T18:06:02.373Z,101520.78
2022-08-07T18:09:05.433Z,101526.59
2022-08-07T18:12:16.286Z,101516.88
2022-08-07T18:15:11.239Z,101506.34
2022-08-07T18:18:46.224Z,101519.53
2022-08-07T18:21:42.040Z,101515.31
2022-08-07T18:24:33.544Z,101518.44
2022-08-07T18:27:39.283Z,101499.91
2022-08-07T18:30:37.800Z,101518.25
2022-08-07T18:33:55.339Z,101512.22
2022-08-07T18:38:58.005Z,101522.91
2022-08-07T18:40:56.138Z,101497.56
2022-08-07T18:43:59.801Z,101511.72
2022-08-07T18:47:09.570Z,101564.66
2022-08-07T18:50:38.726Z,101567.34
2022-08-07T18:53:57.729Z,101577.28
2022-08-07T18:57:29.391Z,101576.66
2022-08-07T19:00:32.779Z,101581.31
2022-08-07T19:03:35.563Z,101578.88
2022-08-07T19:06:54.838Z,101565.88
2022-08-07T19:10:05.216Z,101561.78
2022-08-07T19:12:58.145Z,101571.69
2022-08-07T19:17:02.979Z,101570.88
2022-08-07T19:20:03.284Z,101573.72
2022-08-07T19:23:17.746Z,101565.22
2022-08-07T19:26:21.622Z,101583.84
2022-08-07T19:30:58.066Z,101588.25
2022-08-07T19:32:26.919Z,101590.97
2022-08-07T19:35:22.465Z,101584.97
2022-08-07T19:38:16.845Z,101590.31
2022-08-07T19:41:03.400Z,101595.78
2022-08-07T19:43:56.802Z,101586.19
2022-08-07T19:46:55.586Z,101598.56
2022-08-07T19:49:58.192Z,101596.03
2022-08-07T19:52:58.631Z,101606.72
2022-08-07T19:55:58.113Z,101602.44
2022-08-07T19:58:53.126Z,101606.03
2022-08-07T20:01:52.614Z,101603.53
2022-08-07T20:04:46.219Z,101579.03
2022-08-07T20:07:47.498Z,101585.28
2022-08-07T20:10:54.492Z,101592.34
2022-08-07T20:13:47.150Z,101601.09
2022-08-07T20:16:36.150Z,101613.38
2022-08-07T20:19:28.741Z,101613.38
2022-08-07T20:22:34.136Z,101600.38
2022-08-07T20:25:23.897Z,101610.03
2022-08-07T20:28:12.655Z,101609.25
2022-08-07T20:31:01.354Z,101618.91
2022-08-07T20:33:51.703Z,101617.22
2022-08-07T20:36:44.123Z,101617.28
2022-08-07T20:40:03.925Z,101612.97
2022-08-07T20:42:48.017Z,101608.56
2022-08-07T20:46:28.203Z,101610.34
2022-08-07T20:48:58.203Z,101616.50
2022-08-07T20:51:56.110Z,101616.56
2022-08-07T20:54:53.031Z,101614.84
2022-08-07T20:57:47.457Z,101615.75
2022-08-07T21:00:51.124Z,101613.09
2022-08-07T21:03:45.091Z,101614.88
2022-08-07T21:06:53.098Z,101614.84
2022-08-07T21:09:53.187Z,101614.84
2022-08-07T21:12:47.276Z,101620.97
2022-08-07T21:15:47.518Z,101631.47
2022-08-07T21:18:46.133Z,101639.34
2022-08-07T21:21:56.927Z,101642.78
2022-08-07T21:24:47.890Z,101641.06
2022-08-07T21:28:01.679Z,101626.22
2022-08-07T21:31:01.161Z,101626.22
2022-08-07T21:33:54.624Z,101614.91
2022-08-07T21:36:50.219Z,101626.25
2022-08-07T21:39:51.809Z,101625.34
2022-08-07T21:42:59.424Z,101621.84
2022-08-07T21:46:08.017Z,101630.50
2022-08-07T21:49:26.778Z,101627.88
2022-08-07T21:52:33.212Z,101637.44
2022-08-07T21:55:50.786Z,101642.66
2022-08-07T21:58:55.051Z,101630.47
2022-08-07T22:02:10.888Z,101639.19
2022-08-07T22:05:02.916Z,101651.28
2022-08-07T22:07:58.781Z,101657.28
2022-08-07T22:10:47.777Z,101658.13
2022-08-07T22:13:51.233Z,101645.97
2022-08-07T22:16:47.605Z,101645.13
2022-08-07T22:19:44.273Z,101639.03
2022-08-07T22:22:58.878Z,101639.84
2022-08-07T22:26:10.492Z,101658.91
2022-08-07T22:29:33.803Z,101656.22
2022-08-07T22:32:34.290Z,101649.31
2022-08-07T22:35:23.203Z,101649.31
2022-08-07T22:38:32.957Z,101654.50
2022-08-07T22:42:02.509Z,101645.72
2022-08-07T22:44:36.223Z,101654.38
2022-08-07T22:47:49.218Z,101662.97
2022-08-07T22:50:37.606Z,101655.94
2022-08-07T22:54:05.676Z,101656.91
2022-08-07T22:57:25.962Z,101658.63
2022-08-07T23:00:21.455Z,101658.50
2022-08-07T23:03:23.779Z,101636.63
2022-08-07T23:06:24.034Z,101661.72
2022-08-07T23:10:03.698Z,101654.78
2022-08-07T23:12:55.663Z,101658.25
2022-08-07T23:16:46.432Z,101654.00
2022-08-07T23:19:57.902Z,101632.25
2022-08-07T23:23:05.048Z,101640.03
2022-08-07T23:26:23.543Z,101643.44
2022-08-07T23:30:35.788Z,101640.69
2022-08-07T23:34:23.671Z,101646.69
2022-08-07T23:36:28.753Z,101645.72
2022-08-07T23:39:25.572Z,101662.06
2022-08-07T23:42:38.042Z,101663.66
2022-08-07T23:46:02.787Z,101665.16
2022-08-07T23:49:23.045Z,101668.63
2022-08-07T23:52:58.104Z,101675.50
2022-08-07T23:55:52.464Z,101660.06
